Time;durP1;ratioP1;P1;durP2;ratioP2;P2;SDS_P1;SDS_P2;PMS_P1;PMS_P2;Temp;Humidity;BMP_temperature;BMP_pressure;BME280_temperature;BME280_humidity;BME280_pressure;Samples;Min_cycle;Max_cycle;Signal;HPM_P1;HPM_P2
2023/01/19 00:01:19;;;;;;;16.58;9.68;;;2.60;99.90;;;;;;5079448;28;20032;-62
2023/01/19 00:03:45;;;;;;;14.15;8.88;;;2.60;99.90;;;;;;5062004;28;20426;-62
2023/01/19 00:06:11;;;;;;;14.93;9.25;;;2.60;99.90;;;;;;5061992;28;20288;-62
2023/01/19 00:08:37;;;;;;;16.52;9.48;;;2.50;99.90;;;;;;5061849;28;20032;-62
2023/01/19 00:11:04;;;;;;;15.18;9.38;;;2.50;99.90;;;;;;5079284;28;20078;-60
2023/01/19 00:13:30;;;;;;;13.32;9.00;;;2.50;99.90;;;;;;5079185;28;20075;-61
2023/01/19 00:15:56;;;;;;;20.02;10.00;;;2.50;99.90;;;;;;5061691;28;20090;-61
2023/01/19 00:18:21;;;;;;;13.82;10.10;;;2.50;99.90;;;;;;5045184;28;20428;-60
2023/01/19 00:20:47;;;;;;;13.82;9.57;;;2.50;99.90;;;;;;5079158;28;20056;-61
2023/01/19 00:23:14;;;;;;;16.67;9.32;;;2.50;99.90;;;;;;5079017;28;20033;-60
2023/01/19 00:25:42;;;;;;;17.15;9.02;;;2.50;99.90;;;;;;5061559;28;20089;-60
2023/01/19 00:28:13;;;;;;;14.75;9.70;;;2.50;99.90;;;;;;5078990;28;20036;-60
2023/01/19 00:30:40;;;;;;;15.90;9.50;;;2.50;99.90;;;;;;5079013;28;20340;-60
2023/01/19 00:33:07;;;;;;;15.10;9.50;;;2.50;99.90;;;;;;5061749;28;20044;-61
2023/01/19 00:35:34;;;;;;;16.17;10.07;;;2.50;99.90;;;;;;5078909;28;20445;-61
2023/01/19 00:38:01;;;;;;;16.70;10.02;;;2.40;99.90;;;;;;5078859;28;20028;-61
2023/01/19 00:40:27;;;;;;;14.50;8.90;;;2.40;99.90;;;;;;5078715;28;20039;-61
2023/01/19 00:42:53;;;;;;;14.75;9.68;;;2.30;99.90;;;;;;5078788;28;20046;-61
2023/01/19 00:45:22;;;;;;;16.55;10.63;;;2.30;99.90;;;;;;5077586;28;20033;-61
2023/01/19 00:47:53;;;;;;;15.20;9.50;;;2.30;99.90;;;;;;5061282;28;20035;-62
2023/01/19 00:50:20;;;;;;;15.38;9.43;;;2.30;99.90;;;;;;5078475;28;20309;-61
2023/01/19 00:52:46;;;;;;;15.45;9.70;;;2.40;99.90;;;;;;5078254;28;20036;-61
2023/01/19 00:55:14;;;;;;;17.33;9.88;;;2.30;99.90;;;;;;5078474;28;20028;-62
2023/01/19 00:57:40;;;;;;;13.55;9.13;;;2.30;99.90;;;;;;5078395;28;20407;-62
2023/01/19 01:00:13;;;;;;;16.23;9.82;;;2.30;99.90;;;;;;5078335;28;20035;-62
2023/01/19 01:02:40;;;;;;;13.95;9.38;;;2.30;99.90;;;;;;5078706;28;20025;-62
2023/01/19 01:05:07;;;;;;;13.73;8.95;;;2.40;99.90;;;;;;5078431;28;20033;-62
2023/01/19 01:07:39;;;;;;;16.85;9.82;;;2.40;99.90;;;;;;5078541;28;20072;-62
2023/01/19 01:10:17;;;;;;;13.57;8.50;;;2.40;99.90;;;;;;5060768;28;20024;-63
2023/01/19 01:12:43;;;;;;;14.15;9.43;;;2.40;99.90;;;;;;5078120;28;20158;-62
2023/01/19 01:15:11;;;;;;;13.65;8.82;;;2.40;99.90;;;;;;5044079;28;20094;-62
2023/01/19 01:17:45;;;;;;;19.15;9.60;;;2.40;99.90;;;;;;5077967;28;20111;-61
2023/01/19 01:20:24;;;;;;;16.35;9.00;;;2.30;99.90;;;;;;5078321;28;20111;-61
2023/01/19 01:22:52;;;;;;;14.90;9.50;;;2.20;99.90;;;;;;5077949;28;20032;-62
2023/01/19 01:25:21;;;;;;;15.52;8.52;;;2.20;99.90;;;;;;5077857;28;20032;-62
2023/01/19 01:27:47;;;;;;;19.85;9.25;;;2.20;99.90;;;;;;5077740;28;20036;-62
2023/01/19 01:30:14;;;;;;;14.82;8.70;;;2.20;99.90;;;;;;5078095;28;20032;-62
2023/01/19 01:32:40;;;;;;;14.40;8.80;;;2.20;99.90;;;;;;5077544;28;20354;-62
2023/01/19 01:35:07;;;;;;;16.88;8.27;;;2.10;99.90;;;;;;5077636;28;20032;-62
2023/01/19 01:37:34;;;;;;;16.05;8.77;;;2.10;99.90;;;;;;5060468;28;20028;-61
2023/01/19 01:40:00;;;;;;;13.35;8.25;;;2.10;99.90;;;;;;5060573;28;20043;-61
2023/01/19 01:42:28;;;;;;;14.57;8.15;;;2.10;99.90;;;;;;5077779;28;20032;-61
2023/01/19 01:44:56;;;;;;;12.52;8.23;;;2.10;99.90;;;;;;5077907;28;20032;-61
2023/01/19 01:47:28;;;;;;;14.57;8.15;;;2.10;99.90;;;;;;5077487;28;20089;-61
2023/01/19 01:50:02;;;;;;;15.98;8.18;;;2.10;99.90;;;;;;5077293;28;20079;-61
2023/01/19 01:52:30;;;;;;;13.93;8.27;;;2.10;99.90;;;;;;5077269;28;20042;-62
2023/01/19 01:54:57;;;;;;;13.82;8.60;;;2.10;99.90;;;;;;5077345;28;20032;-61
2023/01/19 01:57:26;;;;;;;12.60;8.32;;;2.10;99.90;;;;;;5059659;28;20040;-62
2023/01/19 01:59:54;;;;;;;14.85;8.00;;;2.00;99.90;;;;;;5077817;28;20020;-61
2023/01/19 02:05:18;;;;;;;15.75;7.97;;;2.00;99.90;;;;;;5077608;28;20029;-61
2023/01/19 02:13:34;;;;;;;12.68;8.10;;;2.10;99.90;;;;;;5077009;28;20037;-61
2023/01/19 02:16:04;;;;;;;;;;;2.10;99.90;;;;;;5077574;28;20093;-63
2023/01/19 02:18:31;;;;;;;18.52;8.45;;;2.20;99.90;;;;;;5076997;28;19916;-62
2023/01/19 02:21:21;;;;;;;16.95;8.13;;;2.30;99.90;;;;;;5077023;28;20040;-62
2023/01/19 02:23:49;;;;;;;20.50;8.52;;;2.50;99.90;;;;;;5076918;28;20051;-63
2023/01/19 02:26:19;;;;;;;13.05;7.93;;;2.60;99.90;;;;;;5076994;28;20036;-63
2023/01/19 02:28:56;;;;;;;14.52;8.55;;;2.70;99.90;;;;;;5076975;28;20024;-62
2023/01/19 02:31:23;;;;;;;13.20;8.15;;;2.90;99.90;;;;;;5077226;28;20371;-63
2023/01/19 02:33:49;;;;;;;12.23;7.78;;;3.10;99.90;;;;;;5076990;28;20265;-63
2023/01/19 02:36:20;;;;;;;14.93;8.00;;;3.30;99.90;;;;;;5076873;28;20104;-64
2023/01/19 02:38:47;;;;;;;11.88;7.80;;;3.30;99.90;;;;;;5076812;28;20130;-63
2023/01/19 02:41:18;;;;;;;13.40;8.05;;;3.50;99.90;;;;;;5076829;28;20063;-63
2023/01/19 02:43:46;;;;;;;12.50;7.82;;;3.50;99.90;;;;;;5076738;28;20068;-61
2023/01/19 02:46:14;;;;;;;13.00;7.70;;;3.00;99.90;;;;;;5076951;28;20351;-60
2023/01/19 02:48:40;;;;;;;12.40;7.28;;;2.80;99.90;;;;;;5076768;28;20083;-60
2023/01/19 02:51:21;;;;;;;15.45;8.10;;;2.70;99.90;;;;;;5076594;28;20110;-62
2023/01/19 02:53:56;;;;;;;13.63;7.78;;;2.60;99.90;;;;;;5076659;28;20383;-62
2023/01/19 02:56:42;;;;;;;15.30;8.57;;;2.30;99.90;;;;;;5076812;28;20059;-61
2023/01/19 02:59:39;;;;;;;12.55;7.78;;;2.10;99.90;;;;;;5076257;28;20044;-62
2023/01/19 03:02:27;;;;;;;16.27;8.40;;;1.90;99.90;;;;;;5077121;28;20044;-62
2023/01/19 03:05:10;;;;;;;14.65;7.75;;;1.90;99.90;;;;;;5076609;28;20036;-60
2023/01/19 03:07:57;;;;;;;15.23;8.38;;;1.90;99.90;;;;;;5076601;28;20121;-60
2023/01/19 03:10:42;;;;;;;15.05;8.52;;;1.90;99.90;;;;;;5063011;28;20047;-60
2023/01/19 03:13:43;;;;;;;19.67;9.15;;;1.90;99.90;;;;;;5080442;28;20029;-61
2023/01/19 03:16:33;;;;;;;15.27;9.02;;;1.90;99.90;;;;;;5063633;28;20419;-60
2023/01/19 03:19:30;;;;;;;17.52;9.07;;;1.90;99.90;;;;;;5080252;28;20035;-61
2023/01/19 03:22:26;;;;;;;16.90;8.82;;;1.90;99.90;;;;;;5080261;28;20292;-61
2023/01/19 03:24:57;;;;;;;14.25;9.02;;;2.00;99.90;;;;;;5078935;28;20139;-61
2023/01/19 03:27:27;;;;;;;18.75;9.13;;;2.10;99.90;;;;;;5080752;28;20311;-61
2023/01/19 03:29:58;;;;;;;23.38;10.07;;;2.20;99.90;;;;;;5080049;28;20093;-60
2023/01/19 03:32:30;;;;;;;16.35;9.05;;;2.20;99.90;;;;;;5079960;28;20051;-60
2023/01/19 03:35:02;;;;;;;15.75;9.18;;;2.20;99.90;;;;;;5080046;28;20099;-61
2023/01/19 03:37:29;;;;;;;15.88;8.82;;;2.30;99.90;;;;;;5080280;28;20051;-60
2023/01/19 03:39:55;;;;;;;19.75;9.38;;;2.20;99.90;;;;;;5080191;28;20277;-61
2023/01/19 03:42:23;;;;;;;16.73;9.30;;;2.20;99.90;;;;;;5079826;28;20040;-61
2023/01/19 03:44:51;;;;;;;18.92;8.70;;;2.20;99.90;;;;;;5079828;28;20044;-61
2023/01/19 03:47:19;;;;;;;15.93;8.90;;;2.20;99.90;;;;;;5079790;28;20044;-62
2023/01/19 03:49:46;;;;;;;18.75;8.77;;;2.20;99.90;;;;;;5079536;28;20075;-61
2023/01/19 03:52:13;;;;;;;13.73;8.45;;;2.30;99.90;;;;;;5079928;28;20315;-61
2023/01/19 03:54:39;;;;;;;13.82;8.35;;;2.30;99.90;;;;;;5080293;28;20039;-61
2023/01/19 03:57:05;;;;;;;16.90;9.23;;;2.40;99.90;;;;;;5080016;28;20307;-61
2023/01/19 03:59:31;;;;;;;16.10;8.98;;;2.40;99.90;;;;;;5079573;28;20115;-61
2023/01/19 04:01:57;;;;;;;19.88;9.07;;;2.50;99.90;;;;;;5079589;28;20044;-61
2023/01/19 04:04:24;;;;;;;17.52;8.70;;;2.50;99.90;;;;;;5079508;28;20040;-61
2023/01/19 04:06:50;;;;;;;17.08;8.82;;;2.40;99.90;;;;;;5079385;28;20328;-61
2023/01/19 04:09:16;;;;;;;17.63;8.68;;;2.20;99.90;;;;;;5079936;28;20032;-61
2023/01/19 04:11:42;;;;;;;16.55;8.45;;;2.20;99.90;;;;;;5079526;28;20025;-60
2023/01/19 04:14:07;;;;;;;17.58;9.20;;;2.20;99.90;;;;;;5079729;28;20063;-61
2023/01/19 04:16:33;;;;;;;19.23;9.60;;;2.30;99.90;;;;;;5079397;28;20036;-61
2023/01/19 04:18:59;;;;;;;18.90;9.32;;;2.20;99.90;;;;;;5079786;28;20055;-61
2023/01/19 04:21:25;;;;;;;20.58;9.98;;;2.20;99.90;;;;;;5079014;28;20060;-61
2023/01/19 04:23:52;;;;;;;19.65;9.23;;;2.20;99.90;;;;;;5079101;28;20035;-61
2023/01/19 04:26:17;;;;;;;17.75;9.38;;;2.20;99.90;;;;;;5079081;28;20043;-61
2023/01/19 04:28:43;;;;;;;17.05;9.98;;;2.30;99.90;;;;;;5078941;28;20033;-61
2023/01/19 04:31:09;;;;;;;19.20;9.70;;;2.40;99.90;;;;;;5078895;28;20033;-62
2023/01/19 04:33:35;;;;;;;21.25;10.10;;;2.40;99.90;;;;;;5061162;28;20040;-61
2023/01/19 04:36:02;;;;;;;23.35;9.60;;;2.50;99.90;;;;;;5078391;28;20103;-60
2023/01/19 04:38:28;;;;;;;19.17;9.95;;;2.50;99.90;;;;;;5078787;28;20020;-60
2023/01/19 04:40:55;;;;;;;21.38;9.38;;;2.40;99.90;;;;;;5079002;28;20068;-60
2023/01/19 04:43:22;;;;;;;15.38;8.75;;;2.50;99.90;;;;;;5078903;28;20055;-60
2023/01/19 04:45:48;;;;;;;12.80;8.95;;;2.60;99.90;;;;;;5078642;28;20028;-60
2023/01/19 04:48:17;;;;;;;17.17;9.40;;;2.70;99.90;;;;;;5078674;28;20036;-60
2023/01/19 04:50:43;;;;;;;16.10;9.25;;;2.80;99.90;;;;;;5078612;28;20078;-61
2023/01/19 04:53:09;;;;;;;17.73;9.02;;;2.80;99.90;;;;;;5078510;28;20039;-58
2023/01/19 04:55:37;;;;;;;18.75;9.40;;;2.90;99.90;;;;;;5078474;28;20335;-59
2023/01/19 04:58:03;;;;;;;17.65;9.25;;;2.70;99.90;;;;;;5078325;28;20354;-59
2023/01/19 05:00:29;;;;;;;16.17;9.55;;;2.70;99.90;;;;;;5078210;28;20071;-59
2023/01/19 05:02:55;;;;;;;17.73;9.55;;;2.70;99.90;;;;;;5078269;28;20020;-59
2023/01/19 05:05:21;;;;;;;20.83;9.18;;;2.70;99.90;;;;;;5078624;28;20032;-60
2023/01/19 05:07:46;;;;;;;21.77;9.45;;;2.60;99.90;;;;;;5078142;28;20407;-59
2023/01/19 05:10:12;;;;;;;18.33;10.10;;;2.70;99.90;;;;;;5079085;28;20107;-59
2023/01/19 05:12:38;;;;;;;18.77;8.90;;;2.60;99.90;;;;;;5078369;28;20033;-59
2023/01/19 05:15:08;;;;;;;16.63;8.60;;;2.50;99.90;;;;;;5078558;28;20035;-59
2023/01/19 05:17:34;;;;;;;19.50;9.32;;;2.50;99.90;;;;;;5077924;28;20028;-60
2023/01/19 05:20:00;;;;;;;18.42;9.20;;;2.50;99.90;;;;;;5077997;28;20024;-60
2023/01/19 05:22:26;;;;;;;18.40;8.93;;;2.40;99.90;;;;;;5077874;28;20040;-60
2023/01/19 05:24:53;;;;;;;18.27;9.50;;;2.50;99.90;;;;;;5060625;28;20035;-60
2023/01/19 05:27:19;;;;;;;18.40;9.90;;;2.50;99.90;;;;;;5061037;28;20307;-59
2023/01/19 05:29:45;;;;;;;15.68;9.73;;;2.60;99.90;;;;;;5078224;28;20035;-60
2023/01/19 05:32:10;;;;;;;16.48;9.45;;;2.60;99.90;;;;;;5077179;28;20116;-60
2023/01/19 05:34:36;;;;;;;17.38;10.02;;;2.50;99.90;;;;;;5077743;28;20025;-61
2023/01/19 05:37:02;;;;;;;19.52;10.52;;;2.50;99.90;;;;;;5077505;28;20043;-61
2023/01/19 05:39:29;;;;;;;18.05;10.60;;;2.60;99.90;;;;;;5060068;28;20102;-61
2023/01/19 05:41:54;;;;;;;21.00;10.93;;;2.50;99.90;;;;;;5077486;28;20299;-61
2023/01/19 05:44:21;;;;;;;19.05;10.25;;;2.60;99.90;;;;;;5077500;28;20021;-61
2023/01/19 05:46:46;;;;;;;19.42;10.45;;;2.60;99.90;;;;;;5077412;28;20037;-60
2023/01/19 05:49:12;;;;;;;21.33;10.85;;;2.50;99.90;;;;;;5077360;28;20304;-61
2023/01/19 05:51:39;;;;;;;19.45;10.90;;;2.40;99.90;;;;;;5077181;28;20101;-60
2023/01/19 05:54:06;;;;;;;20.88;11.45;;;2.30;99.90;;;;;;5060120;28;20040;-60
2023/01/19 05:56:33;;;;;;;19.73;10.90;;;2.20;99.90;;;;;;5077499;28;20063;-60
2023/01/19 05:59:00;;;;;;;20.15;10.80;;;2.20;99.90;;;;;;5077773;28;20128;-60
2023/01/19 06:01:25;;;;;;;20.10;11.52;;;2.20;99.90;;;;;;5076989;28;20431;-60
2023/01/19 06:03:51;;;;;;;22.77;11.43;;;2.10;99.90;;;;;;5077130;28;20119;-60
2023/01/19 06:06:17;;;;;;;25.10;12.68;;;2.10;99.90;;;;;;5077002;28;20044;-60
2023/01/19 06:08:43;;;;;;;20.67;11.43;;;2.10;99.90;;;;;;5077155;28;20085;-59
2023/01/19 06:11:09;;;;;;;20.70;11.90;;;2.00;99.90;;;;;;5076799;28;20040;-60
2023/01/19 06:13:35;;;;;;;23.20;11.88;;;1.80;99.90;;;;;;5076774;28;20312;-60
2023/01/19 06:16:02;;;;;;;27.00;11.55;;;1.80;99.90;;;;;;5076940;28;20028;-59
2023/01/19 06:18:28;;;;;;;22.38;12.07;;;1.80;99.90;;;;;;5077049;28;20029;-60
2023/01/19 06:20:57;;;;;;;27.98;12.55;;;1.80;99.90;;;;;;5076827;28;20035;-61
2023/01/19 06:23:31;;;;;;;22.10;11.98;;;1.70;99.90;;;;;;5076799;28;20051;-60
2023/01/19 06:25:57;;;;;;;19.52;12.00;;;1.90;99.90;;;;;;5059283;28;20038;-60
2023/01/19 06:28:24;;;;;;;21.83;12.93;;;1.90;99.90;;;;;;5076797;28;20037;-60
2023/01/19 06:30:50;;;;;;;22.88;12.45;;;1.90;99.90;;;;;;5076695;28;20102;-60
2023/01/19 06:33:17;;;;;;;24.55;12.85;;;1.90;99.90;;;;;;5076667;28;20040;-60
2023/01/19 06:35:45;;;;;;;22.83;12.98;;;1.90;99.90;;;;;;5076747;28;20056;-60
2023/01/19 06:38:12;;;;;;;24.30;12.98;;;1.90;99.90;;;;;;5059450;28;20028;-60
2023/01/19 06:40:39;;;;;;;26.10;13.27;;;1.90;99.90;;;;;;5076648;28;20296;-60
2023/01/19 06:43:05;;;;;;;24.13;14.00;;;1.90;99.90;;;;;;5076723;28;20343;-60
2023/01/19 06:45:31;;;;;;;24.35;13.48;;;2.00;99.90;;;;;;5046767;28;20102;-60
2023/01/19 06:47:58;;;;;;;25.50;13.18;;;1.90;99.90;;;;;;5080936;28;20396;-60
2023/01/19 06:50:23;;;;;;;24.20;13.05;;;1.80;99.90;;;;;;5080553;28;20117;-60
2023/01/19 06:52:50;;;;;;;30.75;13.40;;;1.70;99.90;;;;;;5063313;28;20115;-60
2023/01/19 06:55:16;;;;;;;27.63;13.43;;;1.70;99.90;;;;;;5080769;28;20056;-60
2023/01/19 06:57:43;;;;;;;25.90;13.57;;;1.60;99.90;;;;;;5080983;28;20028;-60
2023/01/19 07:00:10;;;;;;;31.38;13.95;;;1.70;99.90;;;;;;5081225;28;20033;-60
2023/01/19 07:02:41;;;;;;;23.42;13.10;;;1.70;99.90;;;;;;5080577;28;20032;-60
2023/01/19 07:05:08;;;;;;;23.95;13.43;;;1.80;99.90;;;;;;5080758;28;20397;-60
2023/01/19 07:07:34;;;;;;;28.55;15.82;;;1.70;99.90;;;;;;5080542;28;20115;-60
2023/01/19 07:10:00;;;;;;;25.95;13.18;;;1.70;99.90;;;;;;5080453;28;20040;-60
2023/01/19 07:12:26;;;;;;;31.08;14.25;;;1.70;99.90;;;;;;5080331;28;20041;-60
2023/01/19 07:14:52;;;;;;;24.50;14.25;;;1.70;99.90;;;;;;5063097;28;20029;-60
2023/01/19 07:17:18;;;;;;;28.45;13.80;;;1.60;99.90;;;;;;5062931;28;20029;-60
2023/01/19 07:19:45;;;;;;;29.13;12.75;;;1.60;99.90;;;;;;5080224;28;20125;-62
2023/01/19 07:22:11;;;;;;;28.80;14.68;;;1.60;99.90;;;;;;5080159;28;20029;-60
2023/01/19 07:24:37;;;;;;;27.83;14.68;;;1.80;99.90;;;;;;5080128;28;20040;-60
2023/01/19 07:27:04;;;;;;;25.33;13.93;;;1.60;99.90;;;;;;5080324;28;20029;-60
2023/01/19 07:29:29;;;;;;;29.23;14.02;;;1.50;99.90;;;;;;5080335;28;20299;-59
2023/01/19 07:31:55;;;;;;;28.45;14.20;;;1.40;99.90;;;;;;5080071;28;20115;-60
2023/01/19 07:34:21;;;;;;;33.22;14.48;;;1.40;99.90;;;;;;5062909;28;20033;-59
2023/01/19 07:36:47;;;;;;;25.73;14.15;;;1.40;99.90;;;;;;5080165;28;20048;-60
2023/01/19 07:39:13;;;;;;;28.08;14.60;;;1.40;99.90;;;;;;5079639;28;20021;-60
2023/01/19 07:41:39;;;;;;;28.60;14.52;;;1.40;99.90;;;;;;5079688;28;20115;-60
2023/01/19 07:44:07;;;;;;;26.27;14.25;;;1.40;99.90;;;;;;5062368;28;20036;-60
2023/01/19 07:46:33;;;;;;;32.25;14.98;;;1.30;99.90;;;;;;5079788;28;20045;-61
2023/01/19 07:48:59;;;;;;;32.05;14.85;;;1.30;99.90;;;;;;5062343;28;20308;-61
2023/01/19 07:51:26;;;;;;;28.50;14.05;;;1.40;99.90;;;;;;5079538;28;20420;-60
2023/01/19 07:53:52;;;;;;;32.33;15.20;;;1.40;99.90;;;;;;5079274;28;20380;-61
2023/01/19 07:56:18;;;;;;;33.90;15.52;;;1.40;99.90;;;;;;5079095;28;20101;-61
2023/01/19 07:58:44;;;;;;;30.00;14.40;;;1.40;99.90;;;;;;5079545;28;20121;-60
2023/01/19 08:01:12;;;;;;;28.98;15.10;;;1.40;99.90;;;;;;5062065;28;20296;-61
2023/01/19 08:03:38;;;;;;;30.02;14.77;;;1.40;99.90;;;;;;5079408;28;20024;-60
2023/01/19 08:06:05;;;;;;;24.02;13.73;;;1.30;99.90;;;;;;5079321;28;20056;-61
2023/01/19 08:08:32;;;;;;;28.90;13.60;;;1.30;99.90;;;;;;5079488;28;20115;-61
2023/01/19 08:10:58;;;;;;;33.63;15.20;;;1.30;99.90;;;;;;5061887;28;20033;-61
2023/01/19 08:13:25;;;;;;;28.60;14.95;;;1.30;99.90;;;;;;5061687;28;20040;-61
2023/01/19 08:15:52;;;;;;;31.27;15.27;;;1.30;99.90;;;;;;5079115;28;20052;-61
2023/01/19 08:18:19;;;;;;;31.13;15.25;;;1.30;99.90;;;;;;5079120;28;20027;-61
2023/01/19 08:20:45;;;;;;;30.15;15.25;;;1.30;99.90;;;;;;5079231;28;20047;-61
2023/01/19 08:23:11;;;;;;;34.08;15.20;;;1.40;99.90;;;;;;5079295;28;20070;-61
2023/01/19 08:25:43;;;;;;;35.25;15.75;;;1.30;99.90;;;;;;5061672;28;20097;-61
2023/01/19 08:28:11;;;;;;;31.50;16.58;;;1.40;99.90;;;;;;5078894;28;20056;-61
2023/01/19 08:30:37;;;;;;;31.40;15.55;;;1.40;99.90;;;;;;5045267;28;20033;-59
2023/01/19 08:33:06;;;;;;;29.58;15.30;;;1.50;99.90;;;;;;5078693;28;20093;-60
2023/01/19 08:35:46;;;;;;;31.20;15.00;;;1.50;99.90;;;;;;5079062;28;20289;-60
2023/01/19 08:38:12;;;;;;;32.85;15.18;;;1.50;99.90;;;;;;5078769;28;20271;-60
2023/01/19 08:40:39;;;;;;;29.85;15.57;;;1.50;99.90;;;;;;5078574;28;20125;-60
2023/01/19 08:43:13;;;;;;;29.55;15.98;;;1.50;99.90;;;;;;5078526;28;20032;-60
2023/01/19 08:45:47;;;;;;;28.20;14.93;;;1.60;99.90;;;;;;5078532;28;20108;-61
2023/01/19 08:48:15;;;;;;;33.42;14.75;;;1.60;99.90;;;;;;5061341;28;20051;-60
2023/01/19 08:50:41;;;;;;;29.75;15.00;;;1.70;99.90;;;;;;5060960;28;20049;-59
2023/01/19 08:53:08;;;;;;;26.15;14.60;;;1.70;99.90;;;;;;5061294;28;20044;-62
2023/01/19 08:55:35;;;;;;;30.92;15.07;;;2.00;99.90;;;;;;5078386;28;20024;-58
2023/01/19 08:58:03;;;;;;;24.00;14.85;;;2.30;99.90;;;;;;5078397;28;20035;-59
2023/01/19 09:00:33;;;;;;;29.15;15.13;;;2.20;99.90;;;;;;5078388;28;20032;-59
2023/01/19 09:03:02;;;;;;;28.67;14.57;;;2.10;99.90;;;;;;5061186;28;20036;-59
2023/01/19 09:05:34;;;;;;;29.60;14.27;;;2.10;99.90;;;;;;5078477;28;20028;-60
2023/01/19 09:08:01;;;;;;;18.45;10.45;;;2.10;99.90;;;;;;5060119;28;20036;-60
2023/01/19 09:10:30;;;;;;;31.63;14.00;;;2.30;99.90;;;;;;5060767;28;20032;-59
2023/01/19 09:12:58;;;;;;;22.25;12.63;;;2.30;99.90;;;;;;5078016;28;20028;-60
2023/01/19 09:15:24;;;;;;;27.05;13.48;;;2.30;99.90;;;;;;5078073;28;20071;-59
2023/01/19 09:17:51;;;;;;;25.25;12.70;;;2.30;99.90;;;;;;5077942;28;20365;-59
2023/01/19 09:20:17;;;;;;;22.60;12.95;;;2.30;99.90;;;;;;5060570;28;20391;-59
2023/01/19 09:22:42;;;;;;;31.75;13.88;;;2.20;99.90;;;;;;5077874;28;20143;-59
2023/01/19 09:25:08;;;;;;;31.88;13.43;;;2.20;99.90;;;;;;5077840;28;20331;-59
2023/01/19 09:27:34;;;;;;;27.20;13.02;;;2.20;99.90;;;;;;5077755;28;20024;-59
2023/01/19 09:30:01;;;;;;;25.17;13.18;;;2.10;99.90;;;;;;5060281;28;20119;-60
2023/01/19 09:32:27;;;;;;;28.55;13.30;;;2.20;99.90;;;;;;5077567;28;20074;-59
2023/01/19 09:34:53;;;;;;;23.17;12.75;;;2.20;99.90;;;;;;5077708;28;20032;-59
2023/01/19 09:37:19;;;;;;;26.50;12.57;;;2.20;99.90;;;;;;5077579;28;20029;-59
2023/01/19 09:39:45;;;;;;;25.23;12.85;;;2.30;99.90;;;;;;5077632;28;20036;-59
2023/01/19 09:42:32;;;;;;;26.02;12.88;;;2.40;99.90;;;;;;5077534;28;20033;-60
2023/01/19 09:45:09;;;;;;;21.88;11.80;;;2.50;99.90;;;;;;5077484;28;20036;-59
2023/01/19 09:47:37;;;;;;;22.92;11.93;;;2.50;99.90;;;;;;5077863;28;20039;-59
2023/01/19 09:50:11;;;;;;;27.50;12.77;;;2.50;99.90;;;;;;5077322;28;20092;-59
2023/01/19 09:52:42;;;;;;;21.30;12.00;;;2.50;99.90;;;;;;5077587;28;20068;-59
2023/01/19 09:55:29;;;;;;;19.45;11.75;;;2.60;99.90;;;;;;5077272;28;20039;-59
2023/01/19 09:57:56;;;;;;;24.92;11.50;;;2.80;99.90;;;;;;5077191;28;20048;-59
2023/01/19 10:00:23;;;;;;;24.63;11.80;;;2.70;99.90;;;;;;5077233;28;20044;-60
2023/01/19 10:03:02;;;;;;;23.77;10.93;;;2.70;99.90;;;;;;5077232;28;20102;-60
2023/01/19 10:05:48;;;;;;;23.95;11.70;;;2.70;99.90;;;;;;5059814;28;20044;-60
2023/01/19 10:08:23;;;;;;;23.98;11.07;;;2.90;99.90;;;;;;5077181;28;20404;-60
2023/01/19 10:10:53;;;;;;;15.05;9.38;;;3.30;99.90;;;;;;5076959;28;20400;-60
2023/01/19 10:13:47;;;;;;;21.05;10.27;;;3.30;99.90;;;;;;5076858;28;20093;-58
2023/01/19 10:16:36;;;;;;;16.83;9.55;;;3.30;99.90;;;;;;5077079;28;20099;-59
2023/01/19 10:19:24;;;;;;;14.60;8.63;;;3.50;99.90;;;;;;5076913;28;20028;-58
2023/01/19 10:21:51;;;;;;;26.98;10.38;;;3.40;99.90;;;;;;5076904;28;20257;-58
2023/01/19 10:24:28;;;;;;;9.77;5.35;;;3.40;99.90;;;;;;5059441;28;20331;-63
2023/01/19 10:26:55;;;;;;;17.17;9.02;;;5.50;99.90;;;;;;5076789;28;20040;-62
2023/01/19 10:29:27;;;;;;;18.10;9.32;;;5.00;99.90;;;;;;5059249;28;20037;-62
2023/01/19 10:32:08;;;;;;;;;;;4.60;99.90;;;;;;5077354;28;20416;-63
2023/01/19 10:34:34;;;;;;;16.60;9.52;;;3.90;99.90;;;;;;5059318;28;20311;-62
2023/01/19 10:37:26;;;;;;;18.60;10.27;;;3.70;99.90;;;;;;5076932;28;20025;-62
2023/01/19 10:39:54;;;;;;;17.73;10.18;;;3.60;99.90;;;;;;5069864;28;20129;-63
2023/01/19 10:42:21;;;;;;;23.98;9.88;;;3.60;99.90;;;;;;5059242;28;20033;-62
2023/01/19 10:44:50;;;;;;;15.23;10.13;;;3.60;99.90;;;;;;5076716;28;20089;-63
2023/01/19 10:47:18;;;;;;;18.42;9.98;;;3.70;99.90;;;;;;5077144;28;20033;-63
2023/01/19 10:49:45;;;;;;;22.80;10.43;;;3.70;99.90;;;;;;5055764;28;20071;-63
2023/01/19 10:52:35;;;;;;;25.48;10.77;;;3.70;99.90;;;;;;5056506;28;20033;-62
2023/01/19 10:55:03;;;;;;;21.42;10.70;;;3.70;99.90;;;;;;5056513;28;20029;-62
2023/01/19 10:57:39;;;;;;;19.67;11.38;;;3.50;99.90;;;;;;5056463;28;20099;-62
2023/01/19 11:00:26;;;;;;;23.15;12.82;;;3.40;99.90;;;;;;5056647;28;20029;-62
2023/01/19 11:02:52;;;;;;;24.20;13.18;;;3.50;99.90;;;;;;5056422;28;20112;-63
2023/01/19 11:05:31;;;;;;;24.05;13.43;;;3.60;99.90;;;;;;5056686;28;20111;-62
2023/01/19 11:07:56;;;;;;;25.27;13.63;;;3.50;99.90;;;;;;5056522;28;20419;-63
2023/01/19 11:10:28;;;;;;;25.30;12.93;;;3.40;99.90;;;;;;5056485;28;20057;-65
2023/01/19 11:12:56;;;;;;;28.02;14.38;;;3.50;99.90;;;;;;5056376;28;20033;-63
2023/01/19 11:15:49;;;;;;;25.02;13.98;;;3.50;99.90;;;;;;5056678;28;20021;-64
2023/01/19 11:18:37;;;;;;;24.73;14.57;;;3.30;99.90;;;;;;5055590;28;20365;-63
2023/01/19 11:21:12;;;;;;;33.22;14.73;;;3.40;99.90;;;;;;5056970;28;20400;-64
2023/01/19 11:23:44;;;;;;;23.00;13.10;;;3.60;99.90;;;;;;5056347;28;20163;-61
2023/01/19 11:26:33;;;;;;;25.85;14.38;;;3.50;99.90;;;;;;5056283;28;20328;-62
2023/01/19 11:29:01;;;;;;;28.13;14.80;;;3.50;99.90;;;;;;5056348;28;20029;-64
2023/01/19 11:31:27;;;;;;;26.77;14.32;;;3.50;99.90;;;;;;5059752;28;20035;-63
2023/01/19 11:33:57;;;;;;;26.05;14.52;;;3.40;99.90;;;;;;5059961;28;20033;-63
2023/01/19 11:36:24;;;;;;;29.08;15.40;;;3.20;99.90;;;;;;5060052;28;20033;-63
2023/01/19 11:39:02;;;;;;;28.33;16.00;;;3.60;99.90;;;;;;5059344;28;20033;-63
2023/01/19 11:41:33;;;;;;;30.40;15.73;;;3.70;99.90;;;;;;5060245;28;20300;-62
2023/01/19 11:44:42;;;;;;;27.10;15.10;;;3.60;99.90;;;;;;5059980;28;20047;-64
2023/01/19 11:47:17;;;;;;;28.38;16.10;;;3.50;99.90;;;;;;5037360;28;20044;-63
2023/01/19 11:50:04;;;;;;;34.35;17.23;;;3.40;99.90;;;;;;5063168;28;20404;-63
2023/01/19 11:52:36;;;;;;;36.72;16.77;;;3.30;99.90;;;;;;5079973;28;20074;-63
2023/01/19 11:55:13;;;;;;;33.45;16.55;;;3.30;99.90;;;;;;5079677;28;20107;-63
2023/01/19 11:57:46;;;;;;;33.28;16.40;;;3.40;99.90;;;;;;5045475;28;20048;-62
2023/01/19 12:00:23;;;;;;;32.58;16.52;;;3.30;99.90;;;;;;5079573;28;20193;-62
2023/01/19 12:02:55;;;;;;;33.60;17.42;;;3.40;99.90;;;;;;5079478;28;20295;-63
2023/01/19 12:05:25;;;;;;;31.48;17.50;;;3.70;99.90;;;;;;5079552;28;20074;-62
2023/01/19 12:07:51;;;;;;;30.42;17.10;;;3.60;99.90;;;;;;5079321;28;20142;-63
2023/01/19 12:10:25;;;;;;;34.28;17.55;;;3.50;99.90;;;;;;5062118;28;20064;-63
2023/01/19 12:12:52;;;;;;;31.05;16.13;;;3.50;99.90;;;;;;5079488;28;20032;-63
2023/01/19 12:15:40;;;;;;;32.78;17.58;;;3.80;99.90;;;;;;5079669;28;20293;-63
2023/01/19 12:18:21;;;;;;;33.25;17.55;;;3.80;99.90;;;;;;5079169;28;20273;-64
2023/01/19 12:20:55;;;;;;;30.48;16.52;;;4.10;99.90;;;;;;5079524;28;20296;-64
2023/01/19 12:23:31;;;;;;;34.03;16.67;;;4.00;99.90;;;;;;5061964;28;20365;-61
2023/01/19 12:26:31;;;;;;;32.75;16.40;;;3.80;99.90;;;;;;5079201;28;20327;-63
2023/01/19 12:29:04;;;;;;;30.13;15.65;;;3.60;99.90;;;;;;5079043;28;20040;-63
2023/01/19 12:31:30;;;;;;;30.60;16.23;;;3.90;99.90;;;;;;5079065;28;20021;-63
2023/01/19 12:34:26;;;;;;;33.35;15.93;;;4.20;99.90;;;;;;5078885;28;20090;-62
2023/01/19 12:36:54;;;;;;;30.55;16.00;;;4.10;99.90;;;;;;5078945;28;20090;-62
2023/01/19 12:39:22;;;;;;;31.35;14.82;;;4.10;99.90;;;;;;5078852;28;20431;-64
2023/01/19 12:42:15;;;;;;;26.52;14.55;;;4.30;99.90;;;;;;5078046;28;20024;-64
2023/01/19 12:44:44;;;;;;;27.10;14.25;;;4.60;99.90;;;;;;5061554;28;20051;-63
2023/01/19 12:47:11;;;;;;;27.20;14.40;;;4.90;99.90;;;;;;5078705;28;20032;-63
2023/01/19 12:49:37;;;;;;;26.90;14.55;;;4.40;99.90;;;;;;5078488;28;20058;-63
2023/01/19 12:52:27;;;;;;;28.90;14.13;;;4.40;99.90;;;;;;5077575;28;20047;-64
2023/01/19 12:54:56;;;;;;;29.17;15.13;;;4.30;99.90;;;;;;5078560;28;20033;-64
2023/01/19 12:58:01;;;;;;;29.42;14.73;;;4.50;99.90;;;;;;5078535;28;20029;-65
2023/01/19 13:00:28;;;;;;;31.50;14.32;;;4.40;99.90;;;;;;5055700;28;20066;-63
2023/01/19 13:03:02;;;;;;;30.48;14.55;;;4.00;99.90;;;;;;5078340;28;20043;-65
2023/01/19 13:05:37;;;;;;;26.17;14.57;;;4.10;99.90;;;;;;5060915;28;20032;-64